createdAt,value
2023-04-03T00:01:01.091Z,2.78
2023-04-03T00:03:28.868Z,3.72
2023-04-03T00:05:56.688Z,2.88
2023-04-03T00:08:24.036Z,4.18
2023-04-03T00:10:51.568Z,3.05
2023-04-03T00:13:19.222Z,3.00
2023-04-03T00:15:46.704Z,3.10
2023-04-03T00:18:14.064Z,3.17
2023-04-03T00:20:41.609Z,3.15
2023-04-03T00:23:08.910Z,3.80
2023-04-03T00:25:36.303Z,3.22
2023-04-03T00:28:05.065Z,3.00
2023-04-03T00:30:32.756Z,3.33
2023-04-03T00:33:01.673Z,3.47
2023-04-03T00:35:29.303Z,3.35
2023-04-03T00:37:57.153Z,3.13
2023-04-03T00:40:26.138Z,3.08
2023-04-03T00:42:57.625Z,3.80
2023-04-03T00:45:38.430Z,3.88
2023-04-03T00:48:08.709Z,3.58
2023-04-03T00:50:39.508Z,3.42
2023-04-03T00:53:08.713Z,3.00
2023-04-03T00:55:38.912Z,4.68
2023-04-03T00:58:08.137Z,3.35
2023-04-03T01:00:40.143Z,3.47
2023-04-03T01:03:07.636Z,4.25
2023-04-03T01:05:35.195Z,4.03
2023-04-03T01:08:03.520Z,4.53
2023-04-03T01:10:31.398Z,3.60
2023-04-03T01:13:00.899Z,4.63
2023-04-03T01:15:31.365Z,4.78
2023-04-03T01:17:59.950Z,3.60
2023-04-03T01:20:34.510Z,3.58
2023-04-03T01:23:11.157Z,3.63
2023-04-03T01:25:42.215Z,3.33
2023-04-03T01:28:14.100Z,2.90
2023-04-03T01:31:09.499Z,2.85
2023-04-03T01:33:39.768Z,3.45
2023-04-03T01:36:08.044Z,3.17
2023-04-03T01:38:35.629Z,2.95
2023-04-03T01:41:03.150Z,3.28
2023-04-03T01:43:30.681Z,3.35
2023-04-03T01:45:58.118Z,3.72
2023-04-03T01:48:25.429Z,3.45
2023-04-03T01:50:52.734Z,3.15
2023-04-03T01:53:20.167Z,2.83
2023-04-03T01:55:47.641Z,3.10
2023-04-03T01:58:14.943Z,2.88
2023-04-03T02:00:42.246Z,3.08
2023-04-03T02:03:09.817Z,3.08
2023-04-03T02:05:37.274Z,2.90
2023-04-03T02:08:04.775Z,3.35
2023-04-03T02:10:32.145Z,3.80
2023-04-03T02:12:59.688Z,3.88
2023-04-03T02:15:27.550Z,3.10
2023-04-03T02:17:55.018Z,3.08
2023-04-03T02:20:22.613Z,2.95
2023-04-03T02:22:50.061Z,3.20
2023-04-03T02:25:18.770Z,2.60
2023-04-03T02:27:46.083Z,2.95
2023-04-03T02:30:15.770Z,2.85
2023-04-03T02:32:44.485Z,3.45
2023-04-03T02:35:12.910Z,2.90
2023-04-03T02:37:40.699Z,2.88
2023-04-03T02:40:09.140Z,4.00
2023-04-03T02:42:36.914Z,3.38
2023-04-03T02:45:04.975Z,3.05
2023-04-03T02:47:32.361Z,3.47
2023-04-03T02:49:59.894Z,3.03
2023-04-03T02:52:27.204Z,2.85
2023-04-03T02:54:54.526Z,2.70
2023-04-03T02:57:22.152Z,2.92
2023-04-03T02:59:49.536Z,2.63
2023-04-03T03:02:16.885Z,2.53
2023-04-03T03:04:44.234Z,4.63
2023-04-03T03:07:11.754Z,2.90
2023-04-03T03:09:39.108Z,3.33
2023-04-03T03:12:06.528Z,3.72
2023-04-03T03:14:33.880Z,3.60
2023-04-03T03:17:01.249Z,3.30
2023-04-03T03:19:28.644Z,3.40
2023-04-03T03:21:56.129Z,3.95
2023-04-03T03:24:23.433Z,3.97
2023-04-03T03:26:50.760Z,3.53
2023-04-03T03:29:18.059Z,3.38
2023-04-03T03:31:45.820Z,3.25
2023-04-03T03:34:13.186Z,3.10
2023-04-03T03:36:40.747Z,2.88
2023-04-03T03:39:08.191Z,2.88
2023-04-03T03:41:35.544Z,2.97
2023-04-03T03:44:02.951Z,3.63
2023-04-03T03:46:30.370Z,4.68
2023-04-03T03:48:57.813Z,2.55
2023-04-03T03:51:25.677Z,2.58
2023-04-03T03:53:53.005Z,4.20
2023-04-03T03:56:21.528Z,4.18
2023-04-03T03:58:48.954Z,2.28
2023-04-03T04:01:18.007Z,3.00
2023-04-03T04:03:45.551Z,2.80
2023-04-03T04:06:13.036Z,3.00
2023-04-03T04:08:40.821Z,3.03
2023-04-03T04:11:08.787Z,3.13
2023-04-03T04:13:36.273Z,3.17
2023-04-03T04:16:03.615Z,3.55
2023-04-03T04:18:31.145Z,2.80
2023-04-03T04:20:59.816Z,2.95
2023-04-03T04:23:27.526Z,3.00
2023-04-03T04:25:54.795Z,3.15
2023-04-03T04:28:22.259Z,3.63
2023-04-03T04:30:49.650Z,2.97
2023-04-03T04:33:17.617Z,3.53
2023-04-03T04:35:45.266Z,3.03
2023-04-03T04:38:12.701Z,3.70
2023-04-03T04:40:40.112Z,3.67
2023-04-03T04:43:07.621Z,3.58
2023-04-03T04:45:35.301Z,3.53
2023-04-03T04:48:02.816Z,3.72
2023-04-03T04:50:30.287Z,4.68
2023-04-03T04:52:57.748Z,3.65
2023-04-03T04:55:25.373Z,3.65
2023-04-03T04:57:52.807Z,3.75
2023-04-03T05:00:20.506Z,4.93
2023-04-03T05:02:48.085Z,4.55
2023-04-03T05:05:15.753Z,9.32
2023-04-03T05:07:43.172Z,10.55
2023-04-03T05:10:10.950Z,10.70
2023-04-03T05:12:38.322Z,9.57
2023-04-03T05:15:06.375Z,9.60
2023-04-03T05:17:33.780Z,8.10
2023-04-03T05:20:01.169Z,6.75
2023-04-03T05:22:28.477Z,6.18
2023-04-03T05:24:55.895Z,5.90
2023-04-03T05:27:25.002Z,5.70
2023-04-03T05:29:54.286Z,4.60
2023-04-03T05:32:22.353Z,4.25
2023-04-03T05:34:49.980Z,4.30
2023-04-03T05:37:17.352Z,4.90
2023-04-03T05:39:44.956Z,3.97
2023-04-03T05:42:12.650Z,4.85
2023-04-03T05:44:40.013Z,4.70
2023-04-03T05:47:07.418Z,4.22
2023-04-03T05:49:35.001Z,4.30
2023-04-03T05:52:02.567Z,6.13
2023-04-03T05:54:31.272Z,5.95
2023-04-03T05:56:58.986Z,5.90
2023-04-03T05:59:26.764Z,5.88
2023-04-03T06:01:54.279Z,6.53
2023-04-03T06:04:22.440Z,5.72
2023-04-03T06:06:52.599Z,6.22
2023-04-03T06:09:22.034Z,6.40
2023-04-03T06:11:49.618Z,5.40
2023-04-03T06:14:17.025Z,5.68
2023-04-03T06:16:45.110Z,6.00
2023-04-03T06:19:14.658Z,5.93
2023-04-03T06:21:42.094Z,4.20
2023-04-03T06:24:10.718Z,4.93
2023-04-03T06:26:38.302Z,4.35
2023-04-03T06:29:05.637Z,3.65
2023-04-03T06:31:33.066Z,4.82
2023-04-03T06:34:00.573Z,4.85
2023-04-03T06:36:28.085Z,4.07
2023-04-03T06:38:55.942Z,4.00
2023-04-03T06:41:23.820Z,4.68
2023-04-03T06:43:51.130Z,4.90
2023-04-03T06:46:20.751Z,5.22
2023-04-03T06:48:48.448Z,5.63
2023-04-03T06:51:30.160Z,4.43
2023-04-03T06:54:01.420Z,6.22
2023-04-03T06:56:29.428Z,6.95
2023-04-03T06:58:58.737Z,6.35
2023-04-03T07:01:28.949Z,6.55
2023-04-03T07:03:57.413Z,5.10
2023-04-03T07:06:28.227Z,4.28
2023-04-03T07:08:56.294Z,5.70
2023-04-03T07:11:24.035Z,6.13
2023-04-03T07:13:51.686Z,6.00
2023-04-03T07:16:19.370Z,6.53
2023-04-03T07:18:47.650Z,6.07
2023-04-03T07:21:15.257Z,5.68
2023-04-03T07:23:42.737Z,6.88
2023-04-03T07:26:10.586Z,6.22
2023-04-03T07:28:37.988Z,5.80
2023-04-03T07:31:14.592Z,7.25
2023-04-03T07:33:42.777Z,6.05
2023-04-03T07:36:11.560Z,6.30
2023-04-03T07:38:39.241Z,6.13
2023-04-03T07:41:06.972Z,4.60
2023-04-03T07:43:35.411Z,3.80
2023-04-03T07:46:06.333Z,4.97
2023-04-03T07:48:33.996Z,4.22
2023-04-03T07:51:02.991Z,4.63
2023-04-03T07:53:30.628Z,5.35
2023-04-03T07:55:59.149Z,5.18
2023-04-03T07:58:26.858Z,5.07
2023-04-03T08:00:54.534Z,5.43
2023-04-03T08:03:22.477Z,6.07
2023-04-03T08:05:50.914Z,6.75
2023-04-03T08:08:23.822Z,6.32
2023-04-03T08:10:53.529Z,7.05
2023-04-03T08:13:22.440Z,6.97
2023-04-03T08:15:50.138Z,6.68
2023-04-03T08:18:17.608Z,6.68
2023-04-03T08:20:45.555Z,7.47
2023-04-03T08:23:13.096Z,6.38
2023-04-03T08:25:41.976Z,5.95
2023-04-03T08:28:10.581Z,6.85
2023-04-03T08:30:42.103Z,7.03
2023-04-03T08:33:10.353Z,7.63
2023-04-03T08:35:42.538Z,6.82
2023-04-03T08:38:11.653Z,6.80
2023-04-03T08:40:40.841Z,7.47
2023-04-03T08:43:36.447Z,8.40
2023-04-03T08:46:07.507Z,7.80
2023-04-03T08:48:39.973Z,8.32
2023-04-03T08:51:21.226Z,9.95
2023-04-03T08:54:03.344Z,7.35
2023-04-03T08:56:32.368Z,7.55
2023-04-03T08:59:05.057Z,7.68
2023-04-03T09:01:41.445Z,7.25
2023-04-03T09:06:44.273Z,6.20
2023-04-03T09:09:16.681Z,7.22
2023-04-03T09:12:11.174Z,6.93
2023-04-03T09:14:58.859Z,6.85
2023-04-03T09:17:38.577Z,7.05
2023-04-03T09:20:43.409Z,6.78
2023-04-03T09:23:49.628Z,6.97
2023-04-03T09:26:30.437Z,5.78
2023-04-03T09:29:01.855Z,5.50
2023-04-03T09:31:37.654Z,6.05
2023-04-03T09:36:54.794Z,5.43
2023-04-03T09:39:25.578Z,6.93
2023-04-03T09:42:19.557Z,6.15
2023-04-03T09:44:57.531Z,6.43
2023-04-03T09:47:31.256Z,5.90
2023-04-03T09:50:13.383Z,6.28
2023-04-03T09:52:42.427Z,6.95
2023-04-03T09:55:18.175Z,7.00
2023-04-03T09:57:51.601Z,6.90
2023-04-03T10:00:34.527Z,6.22
2023-04-03T10:03:02.583Z,6.97
2023-04-03T10:05:43.864Z,6.45
2023-04-03T10:08:17.689Z,7.00
2023-04-03T10:10:50.653Z,6.10
2023-04-03T10:13:48.831Z,6.00
2023-04-03T10:16:22.582Z,5.70
2023-04-03T10:19:18.502Z,6.72
2023-04-03T10:22:00.299Z,5.72
2023-04-03T10:25:07.099Z,6.30
2023-04-03T10:27:48.916Z,5.88
2023-04-03T10:30:27.938Z,5.70
2023-04-03T10:33:11.427Z,7.50
2023-04-03T10:36:00.882Z,5.88
2023-04-03T10:38:55.958Z,5.65
2023-04-03T10:41:34.912Z,6.32
2023-04-03T10:44:05.784Z,5.70
2023-04-03T10:46:37.057Z,6.00
2023-04-03T10:49:22.150Z,6.35
2023-04-03T10:52:00.604Z,5.22
2023-04-03T10:54:39.284Z,6.10
2023-04-03T10:57:13.054Z,6.63
2023-04-03T10:59:58.626Z,5.55
2023-04-03T11:02:47.100Z,5.38
2023-04-03T11:05:29.639Z,7.20
2023-04-03T11:08:01.135Z,6.57
2023-04-03T11:10:52.026Z,5.35
2023-04-03T11:13:37.605Z,5.13
2023-04-03T11:16:06.654Z,5.05
2023-04-03T11:18:41.827Z,4.90
2023-04-03T11:21:25.768Z,5.50
2023-04-03T11:23:57.305Z,5.28
2023-04-03T11:26:29.818Z,5.13
2023-04-03T11:29:07.013Z,4.63
2023-04-03T11:32:09.728Z,6.55
2023-04-03T11:34:51.151Z,4.55
2023-04-03T11:37:39.252Z,6.25
2023-04-03T11:40:11.237Z,4.15
2023-04-03T11:42:41.514Z,3.80
2023-04-03T11:45:28.027Z,3.55
2023-04-03T11:48:29.360Z,3.58
2023-04-03T11:50:57.846Z,4.15
2023-04-03T11:53:38.410Z,5.00
2023-04-03T11:56:26.945Z,4.07
2023-04-03T11:59:15.510Z,3.80
2023-04-03T12:02:01.605Z,4.78
2023-04-03T12:04:30.196Z,3.88
2023-04-03T12:07:17.784Z,3.95
2023-04-03T12:09:45.393Z,3.20
2023-04-03T12:12:33.163Z,4.15
2023-04-03T12:15:28.816Z,4.45
2023-04-03T12:17:56.328Z,3.50
2023-04-03T12:20:59.272Z,3.10
2023-04-03T12:23:30.234Z,3.63
2023-04-03T12:26:21.108Z,3.70
2023-04-03T12:28:51.476Z,4.05
2023-04-03T12:31:19.794Z,3.45
2023-04-03T12:34:15.341Z,4.15
2023-04-03T12:37:08.625Z,3.42
2023-04-03T12:40:00.612Z,3.80
2023-04-03T12:42:55.878Z,3.22
2023-04-03T12:45:25.156Z,3.85
2023-04-03T12:47:56.660Z,4.20
2023-04-03T12:50:31.480Z,3.67
2023-04-03T12:53:05.109Z,3.38
2023-04-03T12:55:32.484Z,4.05
2023-04-03T12:58:16.400Z,3.25
2023-04-03T13:00:44.211Z,3.30
2023-04-03T13:03:28.008Z,4.03
2023-04-03T13:06:02.835Z,3.60
2023-04-03T13:08:31.823Z,4.07
2023-04-03T13:11:12.999Z,3.22
2023-04-03T13:13:40.734Z,3.17
2023-04-03T13:16:14.941Z,3.55
2023-04-03T13:18:43.581Z,3.10
2023-04-03T13:21:26.855Z,3.45
2023-04-03T13:24:14.139Z,3.25
2023-04-03T13:26:43.442Z,3.58
2023-04-03T13:29:32.769Z,3.90
2023-04-03T13:32:01.903Z,4.20
2023-04-03T13:34:48.022Z,3.85
2023-04-03T13:37:27.655Z,3.63
2023-04-03T13:40:01.712Z,4.32
2023-04-03T13:42:35.257Z,3.92
2023-04-03T13:45:20.962Z,2.97
2023-04-03T13:47:50.462Z,3.63
2023-04-03T13:50:26.311Z,3.63
2023-04-03T13:53:06.783Z,4.97
2023-04-03T13:55:37.988Z,4.00
2023-04-03T13:58:08.621Z,5.00
2023-04-03T14:01:17.916Z,4.18
2023-04-03T14:03:56.686Z,4.70
2023-04-03T14:06:24.986Z,3.90
2023-04-03T14:08:52.894Z,4.07
2023-04-03T14:11:24.967Z,4.45
2023-04-03T14:13:52.645Z,4.30
2023-04-03T14:16:23.056Z,5.07
2023-04-03T14:18:52.466Z,4.90
2023-04-03T14:21:22.549Z,4.88
2023-04-03T14:23:51.018Z,5.60
2023-04-03T14:26:24.056Z,5.43
2023-04-03T14:28:54.449Z,5.90
2023-04-03T14:31:22.875Z,6.20
2023-04-03T14:33:51.148Z,5.20
2023-04-03T14:36:22.556Z,5.28
2023-04-03T14:38:51.443Z,6.00
2023-04-03T14:41:23.093Z,5.25
2023-04-03T14:43:51.433Z,4.60
2023-04-03T14:46:26.552Z,4.20
2023-04-03T14:48:57.127Z,4.18
2023-04-03T14:51:24.640Z,3.65
2023-04-03T14:53:52.472Z,4.30
2023-04-03T14:56:26.672Z,3.85
2023-04-03T14:59:00.229Z,4.80
2023-04-03T15:01:29.412Z,4.05
2023-04-03T15:03:57.148Z,4.15
2023-04-03T15:06:26.446Z,4.03
2023-04-03T15:08:54.959Z,3.92
2023-04-03T15:11:22.321Z,4.47
2023-04-03T15:13:49.634Z,4.60
2023-04-03T15:16:19.592Z,4.55
2023-04-03T15:18:48.290Z,5.40
2023-04-03T15:21:16.697Z,4.78
2023-04-03T15:23:44.097Z,5.45
2023-04-03T15:26:11.537Z,4.20
2023-04-03T15:28:41.820Z,4.95
2023-04-03T15:31:10.429Z,4.50
2023-04-03T15:33:38.097Z,4.15
2023-04-03T15:36:07.690Z,4.72
2023-04-03T15:38:44.587Z,4.00
2023-04-03T15:41:11.895Z,3.95
2023-04-03T15:43:39.203Z,4.47
2023-04-03T15:46:06.765Z,4.60
2023-04-03T15:48:34.105Z,5.03
2023-04-03T15:51:18.933Z,4.40
2023-04-03T15:53:46.860Z,3.70
2023-04-03T15:56:14.278Z,4.30
2023-04-03T15:58:41.689Z,4.35
2023-04-03T16:01:12.330Z,3.67
2023-04-03T16:03:46.809Z,3.72
2023-04-03T16:06:16.112Z,3.85
2023-04-03T16:08:43.853Z,4.22
2023-04-03T16:11:12.236Z,3.80
2023-04-03T16:13:39.702Z,4.57
2023-04-03T16:16:07.670Z,3.67
2023-04-03T16:18:36.813Z,4.68
2023-04-03T16:21:04.458Z,3.70
2023-04-03T16:23:31.950Z,4.57
2023-04-03T16:25:59.327Z,4.07
2023-04-03T16:28:27.000Z,3.75
2023-04-03T16:30:54.559Z,3.30
2023-04-03T16:33:23.167Z,3.80
2023-04-03T16:35:51.951Z,3.95
2023-04-03T16:38:23.339Z,3.75
2023-04-03T16:40:50.844Z,3.53
2023-04-03T16:43:18.126Z,3.42
2023-04-03T16:45:45.571Z,3.78
2023-04-03T16:48:15.324Z,3.10
2023-04-03T16:50:42.745Z,3.70
2023-04-03T16:53:10.670Z,3.10
2023-04-03T16:55:38.059Z,2.65
2023-04-03T16:58:05.369Z,3.30
2023-04-03T17:00:35.009Z,3.03
2023-04-03T17:03:02.387Z,2.67
2023-04-03T17:05:29.967Z,2.80
2023-04-03T17:07:57.276Z,2.30
2023-04-03T17:10:25.808Z,2.47
2023-04-03T17:12:53.144Z,2.53
2023-04-03T17:15:21.182Z,2.70
2023-04-03T17:17:50.097Z,2.65
2023-04-03T17:20:17.684Z,2.42
2023-04-03T17:22:45.566Z,2.53
2023-04-03T17:25:14.158Z,3.45
2023-04-03T17:27:41.620Z,2.83
2023-04-03T17:30:09.508Z,2.85
2023-04-03T17:32:38.755Z,3.58
2023-04-03T17:35:07.089Z,2.72
2023-04-03T17:37:35.316Z,2.90
2023-04-03T17:40:03.267Z,3.55
2023-04-03T17:42:31.556Z,3.20
2023-04-03T17:45:01.294Z,3.33
2023-04-03T17:47:28.666Z,2.95
2023-04-03T17:49:56.381Z,2.72
2023-04-03T17:52:25.702Z,2.38
2023-04-03T17:54:53.079Z,3.15
2023-04-03T17:57:20.920Z,2.78
2023-04-03T17:59:48.636Z,3.58
2023-04-03T18:02:16.307Z,3.08
2023-04-03T18:04:43.756Z,3.33
2023-04-03T18:07:12.219Z,4.03
2023-04-03T18:09:41.511Z,4.47
2023-04-03T18:12:12.169Z,3.70
2023-04-03T18:14:40.814Z,3.08
2023-04-03T18:17:08.262Z,3.58
2023-04-03T18:19:35.708Z,4.22
2023-04-03T18:22:12.448Z,4.63
2023-04-03T18:24:40.788Z,3.78
2023-04-03T18:27:14.699Z,3.85
2023-04-03T18:29:45.516Z,4.95
2023-04-03T18:32:16.298Z,6.30
2023-04-03T18:34:43.804Z,4.85
2023-04-03T18:37:11.806Z,4.15
2023-04-03T18:39:39.220Z,4.63
2023-04-03T18:42:18.115Z,4.18
2023-04-03T18:44:51.502Z,4.88
2023-04-03T18:47:19.209Z,6.35
2023-04-03T18:49:46.908Z,5.30
2023-04-03T18:52:14.660Z,4.22
2023-04-03T18:54:43.028Z,4.65
2023-04-03T18:57:10.397Z,4.90
2023-04-03T18:59:38.651Z,3.40
2023-04-03T19:02:07.930Z,4.38
2023-04-03T19:04:36.175Z,3.47
2023-04-03T19:07:05.652Z,4.47
2023-04-03T19:09:33.640Z,3.83
2023-04-03T19:12:02.038Z,4.28
2023-04-03T19:14:29.498Z,3.92
2023-04-03T19:17:12.298Z,4.03
2023-04-03T19:23:59.855Z,3.80
2023-04-03T19:26:28.394Z,3.75
2023-04-03T19:29:06.684Z,4.07
2023-04-03T19:35:26.785Z,4.65
2023-04-03T19:38:20.643Z,4.82
2023-04-03T19:41:19.285Z,4.47
2023-04-03T19:43:47.016Z,4.78
2023-04-03T19:46:14.636Z,5.75
2023-04-03T19:48:44.884Z,4.60
2023-04-03T19:51:17.175Z,7.07
2023-04-03T19:53:44.592Z,4.22
2023-04-03T19:56:51.078Z,4.32
2023-04-03T19:59:36.835Z,4.45
2023-04-03T20:02:04.541Z,3.97
2023-04-03T20:04:32.007Z,4.00
2023-04-03T20:06:59.569Z,3.63
2023-04-03T20:09:27.517Z,4.47
2023-04-03T20:11:56.729Z,4.05
2023-04-03T20:14:24.123Z,4.55
2023-04-03T20:16:51.739Z,4.20
2023-04-03T20:19:19.262Z,4.57
2023-04-03T20:21:47.809Z,5.55
2023-04-03T20:24:16.463Z,4.95
2023-04-03T20:26:49.148Z,5.43
2023-04-03T20:29:19.335Z,6.43
2023-04-03T20:31:47.654Z,5.38
2023-04-03T20:34:16.089Z,6.03
2023-04-03T20:36:44.024Z,5.20
2023-04-03T20:39:11.478Z,6.53
2023-04-03T20:41:39.508Z,6.35
2023-04-03T20:44:06.942Z,6.15
2023-04-03T20:46:49.171Z,6.32
2023-04-03T20:49:21.073Z,5.63
2023-04-03T20:51:51.503Z,5.15
2023-04-03T20:54:19.287Z,5.18
2023-04-03T20:56:49.998Z,5.45
2023-04-03T20:59:18.623Z,5.45
2023-04-03T21:01:48.132Z,4.88
2023-04-03T21:04:30.663Z,4.35
2023-04-03T21:07:37.843Z,3.92
2023-04-03T21:10:42.885Z,4.72
2023-04-03T21:13:47.905Z,4.03
2023-04-03T21:16:15.270Z,4.45
2023-04-03T21:18:53.712Z,4.32
2023-04-03T21:21:24.525Z,5.60
2023-04-03T21:23:54.408Z,4.70
2023-04-03T21:26:22.977Z,4.50
2023-04-03T21:28:52.508Z,5.25
2023-04-03T21:31:22.581Z,4.57
2023-04-03T21:33:51.241Z,6.15
2023-04-03T21:36:18.904Z,7.05
2023-04-03T21:38:49.240Z,4.32
2023-04-03T21:41:17.180Z,4.40
2023-04-03T21:43:47.202Z,4.03
2023-04-03T21:46:14.583Z,4.90
2023-04-03T21:48:42.927Z,4.82
2023-04-03T21:51:11.299Z,4.93
2023-04-03T21:53:38.816Z,4.75
2023-04-03T21:56:06.614Z,5.38
2023-04-03T21:58:34.673Z,4.95
2023-04-03T22:01:09.724Z,4.35
2023-04-03T22:03:37.795Z,5.60
2023-04-03T22:06:05.694Z,5.13
2023-04-03T22:08:33.857Z,5.32
2023-04-03T22:11:03.634Z,5.18
2023-04-03T22:13:32.049Z,5.40
2023-04-03T22:15:59.900Z,5.20
2023-04-03T22:18:27.611Z,6.13
2023-04-03T22:20:55.364Z,4.43
2023-04-03T22:23:23.236Z,4.03
2023-04-03T22:26:06.802Z,4.53
2023-04-03T22:28:37.607Z,5.55
2023-04-03T22:31:08.892Z,4.18
2023-04-03T22:33:36.791Z,4.28
2023-04-03T22:36:09.127Z,4.60
2023-04-03T22:38:37.595Z,4.07
2023-04-03T22:41:07.231Z,4.90
2023-04-03T22:43:36.847Z,3.95
2023-04-03T22:46:06.550Z,4.38
2023-04-03T22:48:34.410Z,4.72
2023-04-03T22:51:06.957Z,4.72
2023-04-03T22:53:34.950Z,4.72
2023-04-03T22:56:04.982Z,4.93
2023-04-03T22:58:32.409Z,5.10
2023-04-03T23:01:08.580Z,4.68
2023-04-03T23:03:37.254Z,5.85
2023-04-03T23:06:06.224Z,5.00
2023-04-03T23:08:35.165Z,5.20
2023-04-03T23:11:02.964Z,4.80
2023-04-03T23:13:30.502Z,4.82
2023-04-03T23:15:59.695Z,4.45
2023-04-03T23:18:31.355Z,5.15
2023-04-03T23:21:08.496Z,4.55
2023-04-03T23:27:22.779Z,4.20
2023-04-03T23:29:50.200Z,3.75
2023-04-03T23:32:17.667Z,5.13
2023-04-03T23:34:45.005Z,3.83
2023-04-03T23:37:12.898Z,3.85
2023-04-03T23:39:40.650Z,4.35
2023-04-03T23:42:10.842Z,4.20
2023-04-03T23:44:38.664Z,4.55
2023-04-03T23:47:06.196Z,3.40
2023-04-03T23:49:33.524Z,3.60
2023-04-03T23:52:01.774Z,4.05
2023-04-03T23:54:29.056Z,4.53
2023-04-03T23:56:56.681Z,4.43
2023-04-03T23:59:24.001Z,4.15
